Terminal Aerodrome Forecast
Issued by NWS Wilmington, OH

Current Version | Previous Version | Text Only | Print | Product List | Glossary Off
Versions: 1 2 3 4 5 6 7 8 9 10 11 12 13 14 15 16 17 18 19 20 21 22 23 24 25 26 27 28 29 30 31 32 33 34 35

000
FTUS41 KILN 021915 AAA
TAFCMH
TAF AMD
KCMH 021915Z 0219/0318 28006KT P6SM VCTS BKN040CB
      TEMPO 0220/0221 3SM -TSRA OVC025CB
     FM030000 VRB03KT P6SM SCT040
     FM031400 31007KT P6SM SCT040=

USA.gov is the U.S. government's official web portal to all federal, state and local government web resources and services.